sensor_id;sensor_type;location;lat;lon;timestamp;P1;durP1;ratioP1;P2;durP2;ratioP2
57573;SDS011;63722;48.858;21.906;2023-01-29T00:01:26;2.50;;;2.40;;
57573;SDS011;63722;48.858;21.906;2023-01-29T00:03:52;2.80;;;2.60;;
57573;SDS011;63722;48.858;21.906;2023-01-29T00:06:18;2.60;;;2.50;;
57573;SDS011;63722;48.858;21.906;2023-01-29T00:08:43;2.90;;;2.70;;
57573;SDS011;63722;48.858;21.906;2023-01-29T00:11:09;2.30;;;2.20;;
57573;SDS011;63722;48.858;21.906;2023-01-29T00:13:35;2.65;;;2.45;;
57573;SDS011;63722;48.858;21.906;2023-01-29T00:16:00;2.85;;;2.65;;
57573;SDS011;63722;48.858;21.906;2023-01-29T00:18:27;2.85;;;2.70;;
57573;SDS011;63722;48.858;21.906;2023-01-29T00:20:53;2.50;;;2.40;;
57573;SDS011;63722;48.858;21.906;2023-01-29T00:23:19;2.63;;;2.50;;
57573;SDS011;63722;48.858;21.906;2023-01-29T00:25:45;2.45;;;2.35;;
57573;SDS011;63722;48.858;21.906;2023-01-29T00:28:11;2.42;;;2.33;;
57573;SDS011;63722;48.858;21.906;2023-01-29T00:30:36;2.63;;;2.53;;
57573;SDS011;63722;48.858;21.906;2023-01-29T00:33:03;2.70;;;2.60;;
57573;SDS011;63722;48.858;21.906;2023-01-29T00:35:29;2.83;;;2.72;;
57573;SDS011;63722;48.858;21.906;2023-01-29T00:37:55;2.28;;;2.17;;
57573;SDS011;63722;48.858;21.906;2023-01-29T00:40:21;2.63;;;2.53;;
57573;SDS011;63722;48.858;21.906;2023-01-29T00:42:47;2.80;;;2.70;;
57573;SDS011;63722;48.858;21.906;2023-01-29T00:45:31;2.78;;;2.67;;
57573;SDS011;63722;48.858;21.906;2023-01-29T00:47:57;2.47;;;2.38;;
57573;SDS011;63722;48.858;21.906;2023-01-29T00:50:22;2.85;;;2.65;;
57573;SDS011;63722;48.858;21.906;2023-01-29T00:52:47;4.25;;;2.45;;
57573;SDS011;63722;48.858;21.906;2023-01-29T00:55:16;3.08;;;2.97;;
57573;SDS011;63722;48.858;21.906;2023-01-29T00:57:41;2.72;;;2.63;;
57573;SDS011;63722;48.858;21.906;2023-01-29T01:00:09;4.28;;;2.33;;
57573;SDS011;63722;48.858;21.906;2023-01-29T01:02:37;2.70;;;2.60;;
57573;SDS011;63722;48.858;21.906;2023-01-29T01:05:21;2.83;;;2.72;;
57573;SDS011;63722;48.858;21.906;2023-01-29T01:07:48;3.00;;;2.80;;
57573;SDS011;63722;48.858;21.906;2023-01-29T01:10:16;2.65;;;2.45;;
57573;SDS011;63722;48.858;21.906;2023-01-29T01:12:49;4.03;;;2.72;;
57573;SDS011;63722;48.858;21.906;2023-01-29T01:15:18;2.72;;;2.55;;
57573;SDS011;63722;48.858;21.906;2023-01-29T01:17:44;2.90;;;2.70;;
57573;SDS011;63722;48.858;21.906;2023-01-29T01:20:10;2.63;;;2.42;;
57573;SDS011;63722;48.858;21.906;2023-01-29T01:22:36;2.80;;;2.70;;
57573;SDS011;63722;48.858;21.906;2023-01-29T01:25:02;2.78;;;2.67;;
57573;SDS011;63722;48.858;21.906;2023-01-29T01:27:28;2.60;;;2.50;;
57573;SDS011;63722;48.858;21.906;2023-01-29T01:29:53;2.42;;;2.33;;
57573;SDS011;63722;48.858;21.906;2023-01-29T01:32:18;2.67;;;2.50;;
57573;SDS011;63722;48.858;21.906;2023-01-29T01:34:44;2.50;;;2.40;;
57573;SDS011;63722;48.858;21.906;2023-01-29T01:37:09;2.80;;;2.70;;
57573;SDS011;63722;48.858;21.906;2023-01-29T01:39:35;2.47;;;2.38;;
57573;SDS011;63722;48.858;21.906;2023-01-29T01:42:00;2.70;;;2.60;;
57573;SDS011;63722;48.858;21.906;2023-01-29T01:53:28;2.67;;;2.58;;
57573;SDS011;63722;48.858;21.906;2023-01-29T01:56:01;2.50;;;2.40;;
57573;SDS011;63722;48.858;21.906;2023-01-29T01:58:36;2.58;;;2.47;;
57573;SDS011;63722;48.858;21.906;2023-01-29T02:01:05;2.42;;;2.33;;
57573;SDS011;63722;48.858;21.906;2023-01-29T02:03:34;3.17;;;2.97;;
57573;SDS011;63722;48.858;21.906;2023-01-29T02:06:30;3.60;;;2.75;;
57573;SDS011;63722;48.858;21.906;2023-01-29T02:09:19;2.75;;;2.65;;
57573;SDS011;63722;48.858;21.906;2023-01-29T02:12:03;2.70;;;2.60;;
57573;SDS011;63722;48.858;21.906;2023-01-29T02:14:31;2.80;;;2.60;;
57573;SDS011;63722;48.858;21.906;2023-01-29T02:17:01;2.67;;;2.58;;
57573;SDS011;63722;48.858;21.906;2023-01-29T02:22:23;2.85;;;2.65;;
57573;SDS011;63722;48.858;21.906;2023-01-29T02:30:39;2.88;;;2.67;;
57573;SDS011;63722;48.858;21.906;2023-01-29T02:44:54;2.92;;;2.72;;
57573;SDS011;63722;48.858;21.906;2023-01-29T02:48:11;2.95;;;2.75;;
57573;SDS011;63722;48.858;21.906;2023-01-29T02:50:37;3.30;;;3.03;;
57573;SDS011;63722;48.858;21.906;2023-01-29T02:53:14;3.03;;;2.83;;
57573;SDS011;63722;48.858;21.906;2023-01-29T02:55:44;2.45;;;2.25;;
57573;SDS011;63722;48.858;21.906;2023-01-29T02:58:18;2.78;;;2.58;;
57573;SDS011;63722;48.858;21.906;2023-01-29T03:00:45;2.45;;;2.35;;
57573;SDS011;63722;48.858;21.906;2023-01-29T03:03:27;2.70;;;2.50;;
57573;SDS011;63722;48.858;21.906;2023-01-29T03:08:44;2.50;;;2.40;;
57573;SDS011;63722;48.858;21.906;2023-01-29T03:11:14;2.60;;;2.50;;
57573;SDS011;63722;48.858;21.906;2023-01-29T03:13:46;3.08;;;2.90;;
57573;SDS011;63722;48.858;21.906;2023-01-29T03:16:33;2.65;;;2.55;;
57573;SDS011;63722;48.858;21.906;2023-01-29T03:19:29;3.00;;;2.80;;
57573;SDS011;63722;48.858;21.906;2023-01-29T03:22:00;2.67;;;2.55;;
57573;SDS011;63722;48.858;21.906;2023-01-29T03:24:51;2.95;;;2.75;;
57573;SDS011;63722;48.858;21.906;2023-01-29T03:27:40;2.67;;;2.58;;
57573;SDS011;63722;48.858;21.906;2023-01-29T03:33:13;2.67;;;2.58;;
57573;SDS011;63722;48.858;21.906;2023-01-29T03:35:48;3.20;;;3.00;;
57573;SDS011;63722;48.858;21.906;2023-01-29T03:38:20;3.17;;;2.42;;
57573;SDS011;63722;48.858;21.906;2023-01-29T03:40:52;2.90;;;2.70;;
57573;SDS011;63722;48.858;21.906;2023-01-29T03:46:07;2.60;;;2.50;;
57573;SDS011;63722;48.858;21.906;2023-01-29T03:49:01;2.78;;;2.67;;
57573;SDS011;63722;48.858;21.906;2023-01-29T03:51:28;2.67;;;2.58;;
57573;SDS011;63722;48.858;21.906;2023-01-29T03:54:11;2.72;;;2.63;;
57573;SDS011;63722;48.858;21.906;2023-01-29T03:56:59;2.70;;;2.60;;
57573;SDS011;63722;48.858;21.906;2023-01-29T04:02:35;2.63;;;2.53;;
57573;SDS011;63722;48.858;21.906;2023-01-29T04:05:08;2.78;;;2.58;;
57573;SDS011;63722;48.858;21.906;2023-01-29T04:07:40;2.95;;;2.83;;
57573;SDS011;63722;48.858;21.906;2023-01-29T04:10:10;2.47;;;2.38;;
57573;SDS011;63722;48.858;21.906;2023-01-29T04:12:43;2.58;;;2.47;;
57573;SDS011;63722;48.858;21.906;2023-01-29T04:15:12;2.55;;;2.45;;
57573;SDS011;63722;48.858;21.906;2023-01-29T04:17:40;2.55;;;2.45;;
57573;SDS011;63722;48.858;21.906;2023-01-29T04:20:09;2.90;;;2.75;;
57573;SDS011;63722;48.858;21.906;2023-01-29T04:22:36;2.70;;;2.58;;
57573;SDS011;63722;48.858;21.906;2023-01-29T04:25:05;2.50;;;2.40;;
57573;SDS011;63722;48.858;21.906;2023-01-29T04:35:31;2.88;;;2.78;;
57573;SDS011;63722;48.858;21.906;2023-01-29T04:38:09;2.70;;;2.60;;
57573;SDS011;63722;48.858;21.906;2023-01-29T04:51:31;2.50;;;2.40;;
57573;SDS011;63722;48.858;21.906;2023-01-29T04:54:27;2.70;;;2.50;;
57573;SDS011;63722;48.858;21.906;2023-01-29T04:59:49;2.58;;;2.47;;
57573;SDS011;63722;48.858;21.906;2023-01-29T05:02:20;2.45;;;2.35;;
57573;SDS011;63722;48.858;21.906;2023-01-29T05:04:48;2.70;;;2.60;;
57573;SDS011;63722;48.858;21.906;2023-01-29T05:07:14;2.42;;;2.33;;
57573;SDS011;63722;48.858;21.906;2023-01-29T05:09:43;2.83;;;2.70;;
57573;SDS011;63722;48.858;21.906;2023-01-29T05:12:11;2.55;;;2.45;;
57573;SDS011;63722;48.858;21.906;2023-01-29T05:14:40;2.72;;;2.63;;
57573;SDS011;63722;48.858;21.906;2023-01-29T05:17:11;2.40;;;2.30;;
57573;SDS011;63722;48.858;21.906;2023-01-29T05:19:40;2.35;;;2.25;;
57573;SDS011;63722;48.858;21.906;2023-01-29T05:22:07;2.50;;;2.40;;
57573;SDS011;63722;48.858;21.906;2023-01-29T05:24:35;2.53;;;2.35;;
57573;SDS011;63722;48.858;21.906;2023-01-29T05:27:01;3.38;;;2.20;;
57573;SDS011;63722;48.858;21.906;2023-01-29T05:29:46;2.42;;;2.33;;
57573;SDS011;63722;48.858;21.906;2023-01-29T05:32:12;2.50;;;2.40;;
57573;SDS011;63722;48.858;21.906;2023-01-29T05:34:38;2.40;;;2.30;;
57573;SDS011;63722;48.858;21.906;2023-01-29T05:37:03;2.55;;;2.45;;
57573;SDS011;63722;48.858;21.906;2023-01-29T05:39:29;2.38;;;2.28;;
57573;SDS011;63722;48.858;21.906;2023-01-29T05:41:54;2.47;;;2.38;;
57573;SDS011;63722;48.858;21.906;2023-01-29T05:44:20;2.60;;;2.40;;
57573;SDS011;63722;48.858;21.906;2023-01-29T05:46:45;2.40;;;2.30;;
57573;SDS011;63722;48.858;21.906;2023-01-29T05:49:10;2.60;;;2.50;;
57573;SDS011;63722;48.858;21.906;2023-01-29T05:51:37;2.35;;;2.25;;
57573;SDS011;63722;48.858;21.906;2023-01-29T05:54:02;2.72;;;2.60;;
57573;SDS011;63722;48.858;21.906;2023-01-29T05:56:28;2.42;;;2.33;;
57573;SDS011;63722;48.858;21.906;2023-01-29T05:58:54;2.60;;;2.50;;
57573;SDS011;63722;48.858;21.906;2023-01-29T06:01:21;2.60;;;2.50;;
57573;SDS011;63722;48.858;21.906;2023-01-29T06:03:48;2.47;;;2.38;;
57573;SDS011;63722;48.858;21.906;2023-01-29T06:06:14;2.50;;;2.30;;
57573;SDS011;63722;48.858;21.906;2023-01-29T06:08:40;2.58;;;2.47;;
57573;SDS011;63722;48.858;21.906;2023-01-29T06:11:09;2.30;;;2.20;;
57573;SDS011;63722;48.858;21.906;2023-01-29T06:13:36;2.53;;;2.42;;
57573;SDS011;63722;48.858;21.906;2023-01-29T06:16:08;2.58;;;2.38;;
57573;SDS011;63722;48.858;21.906;2023-01-29T06:18:35;2.50;;;2.40;;
57573;SDS011;63722;48.858;21.906;2023-01-29T06:21:05;2.38;;;2.28;;
57573;SDS011;63722;48.858;21.906;2023-01-29T06:23:32;2.22;;;2.13;;
57573;SDS011;63722;48.858;21.906;2023-01-29T06:25:59;2.65;;;2.53;;
57573;SDS011;63722;48.858;21.906;2023-01-29T06:28:25;2.70;;;2.60;;
57573;SDS011;63722;48.858;21.906;2023-01-29T06:30:50;2.80;;;2.60;;
57573;SDS011;63722;48.858;21.906;2023-01-29T06:33:16;2.33;;;2.22;;
57573;SDS011;63722;48.858;21.906;2023-01-29T06:35:41;2.40;;;2.30;;
57573;SDS011;63722;48.858;21.906;2023-01-29T06:38:07;2.10;;;2.00;;
57573;SDS011;63722;48.858;21.906;2023-01-29T06:40:32;2.15;;;2.05;;
57573;SDS011;63722;48.858;21.906;2023-01-29T06:42:59;2.67;;;2.58;;
57573;SDS011;63722;48.858;21.906;2023-01-29T06:45:24;2.40;;;2.30;;
57573;SDS011;63722;48.858;21.906;2023-01-29T06:47:50;2.50;;;2.40;;
57573;SDS011;63722;48.858;21.906;2023-01-29T06:50:15;2.30;;;2.20;;
57573;SDS011;63722;48.858;21.906;2023-01-29T06:52:41;2.40;;;2.30;;
57573;SDS011;63722;48.858;21.906;2023-01-29T06:55:06;2.53;;;2.42;;
57573;SDS011;63722;48.858;21.906;2023-01-29T06:57:32;2.40;;;2.30;;
57573;SDS011;63722;48.858;21.906;2023-01-29T06:59:57;2.28;;;2.17;;
57573;SDS011;63722;48.858;21.906;2023-01-29T07:02:23;2.10;;;2.00;;
57573;SDS011;63722;48.858;21.906;2023-01-29T07:04:48;2.60;;;2.50;;
57573;SDS011;63722;48.858;21.906;2023-01-29T07:07:14;2.25;;;2.15;;
57573;SDS011;63722;48.858;21.906;2023-01-29T07:09:39;2.40;;;2.30;;
57573;SDS011;63722;48.858;21.906;2023-01-29T07:12:06;2.53;;;2.42;;
57573;SDS011;63722;48.858;21.906;2023-01-29T07:14:32;2.17;;;2.08;;
57573;SDS011;63722;48.858;21.906;2023-01-29T07:16:57;2.53;;;2.40;;
57573;SDS011;63722;48.858;21.906;2023-01-29T07:19:23;2.22;;;2.13;;
57573;SDS011;63722;48.858;21.906;2023-01-29T07:21:48;2.38;;;2.28;;
57573;SDS011;63722;48.858;21.906;2023-01-29T07:24:14;2.05;;;1.95;;
57573;SDS011;63722;48.858;21.906;2023-01-29T07:26:40;2.17;;;2.08;;
57573;SDS011;63722;48.858;21.906;2023-01-29T07:29:06;2.20;;;2.10;;
57573;SDS011;63722;48.858;21.906;2023-01-29T07:31:31;2.40;;;2.30;;
57573;SDS011;63722;48.858;21.906;2023-01-29T07:33:57;2.30;;;2.20;;
57573;SDS011;63722;48.858;21.906;2023-01-29T07:36:22;2.28;;;2.17;;
57573;SDS011;63722;48.858;21.906;2023-01-29T07:38:48;2.38;;;2.28;;
57573;SDS011;63722;48.858;21.906;2023-01-29T07:41:14;2.15;;;2.05;;
57573;SDS011;63722;48.858;21.906;2023-01-29T07:43:40;2.40;;;2.30;;
57573;SDS011;63722;48.858;21.906;2023-01-29T07:46:05;2.00;;;1.90;;
57573;SDS011;63722;48.858;21.906;2023-01-29T07:48:30;2.40;;;2.30;;
57573;SDS011;63722;48.858;21.906;2023-01-29T07:50:56;2.20;;;2.10;;
57573;SDS011;63722;48.858;21.906;2023-01-29T07:53:23;2.00;;;1.90;;
57573;SDS011;63722;48.858;21.906;2023-01-29T07:55:48;2.35;;;2.25;;
57573;SDS011;63722;48.858;21.906;2023-01-29T07:58:14;2.42;;;2.33;;
57573;SDS011;63722;48.858;21.906;2023-01-29T08:00:39;2.33;;;2.22;;
57573;SDS011;63722;48.858;21.906;2023-01-29T08:03:10;2.20;;;2.10;;
57573;SDS011;63722;48.858;21.906;2023-01-29T08:05:37;2.07;;;1.97;;
57573;SDS011;63722;48.858;21.906;2023-01-29T08:08:02;2.40;;;2.30;;
57573;SDS011;63722;48.858;21.906;2023-01-29T08:10:28;2.45;;;2.35;;
57573;SDS011;63722;48.858;21.906;2023-01-29T08:12:54;2.35;;;2.25;;
57573;SDS011;63722;48.858;21.906;2023-01-29T08:15:24;2.40;;;2.30;;
57573;SDS011;63722;48.858;21.906;2023-01-29T08:17:50;2.30;;;2.13;;
57573;SDS011;63722;48.858;21.906;2023-01-29T08:20:16;2.10;;;2.00;;
57573;SDS011;63722;48.858;21.906;2023-01-29T08:22:43;2.08;;;1.98;;
57573;SDS011;63722;48.858;21.906;2023-01-29T08:25:08;2.35;;;2.25;;
57573;SDS011;63722;48.858;21.906;2023-01-29T08:27:34;2.50;;;2.40;;
57573;SDS011;63722;48.858;21.906;2023-01-29T08:30:00;2.17;;;2.08;;
57573;SDS011;63722;48.858;21.906;2023-01-29T08:32:25;2.13;;;2.03;;
57573;SDS011;63722;48.858;21.906;2023-01-29T08:34:50;2.40;;;2.20;;
57573;SDS011;63722;48.858;21.906;2023-01-29T08:37:16;2.20;;;2.10;;
57573;SDS011;63722;48.858;21.906;2023-01-29T08:39:42;2.08;;;1.98;;
57573;SDS011;63722;48.858;21.906;2023-01-29T08:42:07;2.30;;;2.20;;
57573;SDS011;63722;48.858;21.906;2023-01-29T08:44:32;2.20;;;2.10;;
57573;SDS011;63722;48.858;21.906;2023-01-29T08:46:58;2.17;;;2.08;;
57573;SDS011;63722;48.858;21.906;2023-01-29T08:49:23;2.05;;;1.95;;
57573;SDS011;63722;48.858;21.906;2023-01-29T08:51:49;2.00;;;1.90;;
57573;SDS011;63722;48.858;21.906;2023-01-29T08:54:15;2.40;;;2.30;;
57573;SDS011;63722;48.858;21.906;2023-01-29T08:56:41;2.20;;;2.10;;
57573;SDS011;63722;48.858;21.906;2023-01-29T08:59:07;2.10;;;2.00;;
57573;SDS011;63722;48.858;21.906;2023-01-29T09:01:34;2.10;;;2.00;;
57573;SDS011;63722;48.858;21.906;2023-01-29T09:03:59;2.03;;;1.92;;
57573;SDS011;63722;48.858;21.906;2023-01-29T09:06:24;2.00;;;1.90;;
57573;SDS011;63722;48.858;21.906;2023-01-29T09:08:50;2.03;;;1.92;;
57573;SDS011;63722;48.858;21.906;2023-01-29T09:11:15;2.38;;;2.28;;
57573;SDS011;63722;48.858;21.906;2023-01-29T09:13:40;2.70;;;2.58;;
57573;SDS011;63722;48.858;21.906;2023-01-29T09:16:06;2.25;;;2.15;;
57573;SDS011;63722;48.858;21.906;2023-01-29T09:21:41;2.10;;;2.00;;
57573;SDS011;63722;48.858;21.906;2023-01-29T09:24:06;2.30;;;2.20;;
57573;SDS011;63722;48.858;21.906;2023-01-29T09:26:31;2.15;;;2.05;;
57573;SDS011;63722;48.858;21.906;2023-01-29T09:28:57;2.47;;;2.38;;
57573;SDS011;63722;48.858;21.906;2023-01-29T09:31:22;2.28;;;2.17;;
57573;SDS011;63722;48.858;21.906;2023-01-29T09:33:47;2.22;;;2.13;;
57573;SDS011;63722;48.858;21.906;2023-01-29T09:36:13;2.20;;;2.10;;
57573;SDS011;63722;48.858;21.906;2023-01-29T09:38:38;2.28;;;2.17;;
57573;SDS011;63722;48.858;21.906;2023-01-29T09:43:45;2.17;;;2.08;;
57573;SDS011;63722;48.858;21.906;2023-01-29T09:46:27;2.13;;;2.03;;
57573;SDS011;63722;48.858;21.906;2023-01-29T09:54:47;2.10;;;2.00;;
57573;SDS011;63722;48.858;21.906;2023-01-29T09:57:17;2.00;;;1.90;;
57573;SDS011;63722;48.858;21.906;2023-01-29T09:59:48;2.40;;;2.30;;
57573;SDS011;63722;48.858;21.906;2023-01-29T10:05:43;1.98;;;1.88;;
57573;SDS011;63722;48.858;21.906;2023-01-29T10:11:03;2.35;;;2.25;;
57573;SDS011;63722;48.858;21.906;2023-01-29T10:13:51;2.20;;;2.08;;
57573;SDS011;63722;48.858;21.906;2023-01-29T10:19:17;1.90;;;1.80;;
57573;SDS011;63722;48.858;21.906;2023-01-29T10:21:59;2.40;;;2.30;;
57573;SDS011;63722;48.858;21.906;2023-01-29T10:24:51;2.13;;;1.92;;
57573;SDS011;63722;48.858;21.906;2023-01-29T10:27:19;1.77;;;1.73;;
57573;SDS011;63722;48.858;21.906;2023-01-29T10:29:46;1.83;;;1.73;;
57573;SDS011;63722;48.858;21.906;2023-01-29T10:32:20;1.90;;;1.80;;
57573;SDS011;63722;48.858;21.906;2023-01-29T10:34:55;1.90;;;1.80;;
57573;SDS011;63722;48.858;21.906;2023-01-29T10:37:33;2.13;;;2.03;;
57573;SDS011;63722;48.858;21.906;2023-01-29T10:45:40;2.10;;;2.00;;
57573;SDS011;63722;48.858;21.906;2023-01-29T10:51:08;1.92;;;1.83;;
57573;SDS011;63722;48.858;21.906;2023-01-29T10:53:54;1.95;;;1.85;;
57573;SDS011;63722;48.858;21.906;2023-01-29T11:02:18;2.03;;;1.92;;
57573;SDS011;63722;48.858;21.906;2023-01-29T11:04:45;2.00;;;1.90;;
57573;SDS011;63722;48.858;21.906;2023-01-29T11:07:11;1.60;;;1.60;;
57573;SDS011;63722;48.858;21.906;2023-01-29T11:09:43;1.98;;;1.88;;
57573;SDS011;63722;48.858;21.906;2023-01-29T11:12:20;1.77;;;1.67;;
57573;SDS011;63722;48.858;21.906;2023-01-29T11:14:52;1.92;;;1.83;;
57573;SDS011;63722;48.858;21.906;2023-01-29T11:17:23;1.85;;;1.75;;
57573;SDS011;63722;48.858;21.906;2023-01-29T11:19:50;1.70;;;1.60;;
57573;SDS011;63722;48.858;21.906;2023-01-29T11:22:17;2.42;;;2.22;;
57573;SDS011;63722;48.858;21.906;2023-01-29T11:25:07;1.88;;;1.77;;
57573;SDS011;63722;48.858;21.906;2023-01-29T11:27:38;1.90;;;1.80;;
57573;SDS011;63722;48.858;21.906;2023-01-29T11:30:53;1.80;;;1.70;;
57573;SDS011;63722;48.858;21.906;2023-01-29T11:33:18;1.90;;;1.80;;
57573;SDS011;63722;48.858;21.906;2023-01-29T11:35:46;2.28;;;2.15;;
57573;SDS011;63722;48.858;21.906;2023-01-29T11:40:40;2.00;;;1.90;;
57573;SDS011;63722;48.858;21.906;2023-01-29T11:45:51;1.98;;;1.83;;
57573;SDS011;63722;48.858;21.906;2023-01-29T11:48:19;1.90;;;1.80;;
57573;SDS011;63722;48.858;21.906;2023-01-29T11:50:54;1.70;;;1.60;;
57573;SDS011;63722;48.858;21.906;2023-01-29T11:53:33;1.90;;;1.80;;
57573;SDS011;63722;48.858;21.906;2023-01-29T11:56:02;2.00;;;1.90;;
57573;SDS011;63722;48.858;21.906;2023-01-29T11:58:31;1.92;;;1.83;;
57573;SDS011;63722;48.858;21.906;2023-01-29T12:00:59;1.70;;;1.60;;
57573;SDS011;63722;48.858;21.906;2023-01-29T12:06:31;1.80;;;1.70;;
57573;SDS011;63722;48.858;21.906;2023-01-29T12:09:00;1.73;;;1.63;;
57573;SDS011;63722;48.858;21.906;2023-01-29T12:11:29;2.00;;;1.80;;
57573;SDS011;63722;48.858;21.906;2023-01-29T12:13:57;1.67;;;1.60;;
57573;SDS011;63722;48.858;21.906;2023-01-29T12:16:38;1.55;;;1.55;;
57573;SDS011;63722;48.858;21.906;2023-01-29T12:19:18;1.73;;;1.63;;
57573;SDS011;63722;48.858;21.906;2023-01-29T12:22:07;2.10;;;2.00;;
57573;SDS011;63722;48.858;21.906;2023-01-29T12:24:49;2.03;;;1.80;;
57573;SDS011;63722;48.858;21.906;2023-01-29T12:27:42;1.85;;;1.75;;
57573;SDS011;63722;48.858;21.906;2023-01-29T12:30:30;1.67;;;1.60;;
57573;SDS011;63722;48.858;21.906;2023-01-29T12:33:08;1.75;;;1.65;;
57573;SDS011;63722;48.858;21.906;2023-01-29T12:36:13;1.75;;;1.65;;
57573;SDS011;63722;48.858;21.906;2023-01-29T12:38:45;1.80;;;1.70;;
57573;SDS011;63722;48.858;21.906;2023-01-29T12:44:09;1.75;;;1.65;;
57573;SDS011;63722;48.858;21.906;2023-01-29T12:46:56;1.95;;;1.85;;
57573;SDS011;63722;48.858;21.906;2023-01-29T12:49:26;1.80;;;1.70;;
57573;SDS011;63722;48.858;21.906;2023-01-29T12:51:59;1.90;;;1.80;;
57573;SDS011;63722;48.858;21.906;2023-01-29T12:54:42;1.90;;;1.80;;
57573;SDS011;63722;48.858;21.906;2023-01-29T12:57:28;1.65;;;1.55;;
57573;SDS011;63722;48.858;21.906;2023-01-29T13:00:05;2.10;;;2.00;;
57573;SDS011;63722;48.858;21.906;2023-01-29T13:02:52;1.80;;;1.75;;
57573;SDS011;63722;48.858;21.906;2023-01-29T13:07:47;1.75;;;1.65;;
57573;SDS011;63722;48.858;21.906;2023-01-29T13:10:20;1.60;;;1.50;;
57573;SDS011;63722;48.858;21.906;2023-01-29T13:12:52;1.90;;;1.80;;
57573;SDS011;63722;48.858;21.906;2023-01-29T13:15:35;1.80;;;1.70;;
57573;SDS011;63722;48.858;21.906;2023-01-29T13:20:48;1.98;;;1.88;;
57573;SDS011;63722;48.858;21.906;2023-01-29T13:23:16;1.58;;;1.58;;
57573;SDS011;63722;48.858;21.906;2023-01-29T13:25:45;2.17;;;2.08;;
57573;SDS011;63722;48.858;21.906;2023-01-29T13:28:18;1.40;;;1.40;;
57573;SDS011;63722;48.858;21.906;2023-01-29T13:30:45;1.55;;;1.50;;
57573;SDS011;63722;48.858;21.906;2023-01-29T13:33:18;1.90;;;1.80;;
57573;SDS011;63722;48.858;21.906;2023-01-29T13:35:47;1.65;;;1.55;;
57573;SDS011;63722;48.858;21.906;2023-01-29T13:38:23;1.70;;;1.60;;
57573;SDS011;63722;48.858;21.906;2023-01-29T13:40:52;1.90;;;1.80;;
57573;SDS011;63722;48.858;21.906;2023-01-29T13:43:23;1.92;;;1.83;;
57573;SDS011;63722;48.858;21.906;2023-01-29T13:45:50;2.00;;;1.90;;
57573;SDS011;63722;48.858;21.906;2023-01-29T13:50:50;1.80;;;1.70;;
57573;SDS011;63722;48.858;21.906;2023-01-29T13:53:31;1.48;;;1.48;;
57573;SDS011;63722;48.858;21.906;2023-01-29T13:58:54;1.60;;;1.50;;
57573;SDS011;63722;48.858;21.906;2023-01-29T14:04:30;1.90;;;1.80;;
57573;SDS011;63722;48.858;21.906;2023-01-29T14:06:57;1.70;;;1.60;;
57573;SDS011;63722;48.858;21.906;2023-01-29T14:12:00;1.63;;;1.60;;
57573;SDS011;63722;48.858;21.906;2023-01-29T14:17:24;1.52;;;1.52;;
57573;SDS011;63722;48.858;21.906;2023-01-29T14:19:56;1.42;;;1.42;;
57573;SDS011;63722;48.858;21.906;2023-01-29T14:22:27;1.63;;;1.52;;
57573;SDS011;63722;48.858;21.906;2023-01-29T14:24:55;2.05;;;1.95;;
57573;SDS011;63722;48.858;21.906;2023-01-29T14:27:25;2.55;;;1.55;;
57573;SDS011;63722;48.858;21.906;2023-01-29T14:29:51;1.70;;;1.60;;
57573;SDS011;63722;48.858;21.906;2023-01-29T14:34:51;1.55;;;1.50;;
57573;SDS011;63722;48.858;21.906;2023-01-29T14:37:27;1.70;;;1.60;;
57573;SDS011;63722;48.858;21.906;2023-01-29T14:40:17;1.45;;;1.45;;
57573;SDS011;63722;48.858;21.906;2023-01-29T14:42:51;1.92;;;1.83;;
57573;SDS011;63722;48.858;21.906;2023-01-29T14:45:28;1.63;;;1.58;;
57573;SDS011;63722;48.858;21.906;2023-01-29T14:56:14;1.60;;;1.50;;
57573;SDS011;63722;48.858;21.906;2023-01-29T14:58:53;1.58;;;1.58;;
57573;SDS011;63722;48.858;21.906;2023-01-29T15:01:25;1.80;;;1.70;;
57573;SDS011;63722;48.858;21.906;2023-01-29T15:04:03;1.52;;;1.52;;
57573;SDS011;63722;48.858;21.906;2023-01-29T15:06:45;1.73;;;1.63;;
57573;SDS011;63722;48.858;21.906;2023-01-29T15:17:55;1.50;;;1.40;;
57573;SDS011;63722;48.858;21.906;2023-01-29T15:20:41;1.40;;;1.35;;
57573;SDS011;63722;48.858;21.906;2023-01-29T15:23:26;1.65;;;1.60;;
57573;SDS011;63722;48.858;21.906;2023-01-29T15:25:57;1.70;;;1.60;;
57573;SDS011;63722;48.858;21.906;2023-01-29T15:28:25;1.67;;;1.57;;
57573;SDS011;63722;48.858;21.906;2023-01-29T15:30:55;1.63;;;1.58;;
57573;SDS011;63722;48.858;21.906;2023-01-29T15:33:23;1.50;;;1.50;;
57573;SDS011;63722;48.858;21.906;2023-01-29T15:35:49;1.63;;;1.52;;
57573;SDS011;63722;48.858;21.906;2023-01-29T15:38:21;1.70;;;1.60;;
57573;SDS011;63722;48.858;21.906;2023-01-29T15:40:59;1.67;;;1.58;;
57573;SDS011;63722;48.858;21.906;2023-01-29T15:43:30;1.50;;;1.50;;
57573;SDS011;63722;48.858;21.906;2023-01-29T15:46:06;1.58;;;1.48;;
57573;SDS011;63722;48.858;21.906;2023-01-29T15:48:37;1.70;;;1.65;;
57573;SDS011;63722;48.858;21.906;2023-01-29T15:51:11;1.58;;;1.48;;
57573;SDS011;63722;48.858;21.906;2023-01-29T15:53:53;2.30;;;1.80;;
57573;SDS011;63722;48.858;21.906;2023-01-29T15:56:22;1.80;;;1.70;;
57573;SDS011;63722;48.858;21.906;2023-01-29T15:58:52;2.03;;;1.60;;
57573;SDS011;63722;48.858;21.906;2023-01-29T16:01:19;1.55;;;1.55;;
57573;SDS011;63722;48.858;21.906;2023-01-29T16:03:47;1.80;;;1.70;;
57573;SDS011;63722;48.858;21.906;2023-01-29T16:06:14;1.40;;;1.40;;
57573;SDS011;63722;48.858;21.906;2023-01-29T16:08:40;1.30;;;1.30;;
57573;SDS011;63722;48.858;21.906;2023-01-29T16:11:10;1.48;;;1.48;;
57573;SDS011;63722;48.858;21.906;2023-01-29T16:13:38;1.80;;;1.70;;
57573;SDS011;63722;48.858;21.906;2023-01-29T16:16:26;1.45;;;1.42;;
57573;SDS011;63722;48.858;21.906;2023-01-29T16:18:52;1.50;;;1.40;;
57573;SDS011;63722;48.858;21.906;2023-01-29T16:24:04;1.40;;;1.40;;
57573;SDS011;63722;48.858;21.906;2023-01-29T16:26:37;1.50;;;1.48;;
57573;SDS011;63722;48.858;21.906;2023-01-29T16:29:14;1.60;;;1.60;;
57573;SDS011;63722;48.858;21.906;2023-01-29T16:31:43;1.80;;;1.70;;
57573;SDS011;63722;48.858;21.906;2023-01-29T16:34:14;1.83;;;1.73;;
57573;SDS011;63722;48.858;21.906;2023-01-29T16:36:49;1.50;;;1.48;;
57573;SDS011;63722;48.858;21.906;2023-01-29T16:39:17;1.77;;;1.67;;
57573;SDS011;63722;48.858;21.906;2023-01-29T16:41:59;1.83;;;1.73;;
57573;SDS011;63722;48.858;21.906;2023-01-29T16:47:27;1.58;;;1.48;;
57573;SDS011;63722;48.858;21.906;2023-01-29T16:49:56;1.45;;;1.45;;
57573;SDS011;63722;48.858;21.906;2023-01-29T16:54:50;1.50;;;1.50;;
57573;SDS011;63722;48.858;21.906;2023-01-29T16:57:20;1.80;;;1.70;;
57573;SDS011;63722;48.858;21.906;2023-01-29T16:59:49;1.65;;;1.60;;
57573;SDS011;63722;48.858;21.906;2023-01-29T17:04:50;6.80;;;2.40;;
57573;SDS011;63722;48.858;21.906;2023-01-29T17:07:17;2.00;;;1.90;;
57573;SDS011;63722;48.858;21.906;2023-01-29T17:09:49;2.15;;;2.05;;
57573;SDS011;63722;48.858;21.906;2023-01-29T17:12:19;5.40;;;2.10;;
57573;SDS011;63722;48.858;21.906;2023-01-29T17:17:57;2.42;;;2.22;;
57573;SDS011;63722;48.858;21.906;2023-01-29T17:20:22;2.35;;;2.05;;
57573;SDS011;63722;48.858;21.906;2023-01-29T17:22:47;2.58;;;2.38;;
57573;SDS011;63722;48.858;21.906;2023-01-29T17:25:13;3.22;;;2.20;;
57573;SDS011;63722;48.858;21.906;2023-01-29T17:27:39;2.45;;;2.22;;
57573;SDS011;63722;48.858;21.906;2023-01-29T17:30:08;2.65;;;2.20;;
57573;SDS011;63722;48.858;21.906;2023-01-29T17:32:38;8.03;;;2.30;;
57573;SDS011;63722;48.858;21.906;2023-01-29T17:35:03;1.90;;;1.80;;